sensor_id;sensor_type;location;lat;lon;timestamp;P1;durP1;ratioP1;P2;durP2;ratioP2
20298;SDS011;10308;42.688;23.256;2023-07-08T00:17:37;11.98;;;10.88;;
20298;SDS011;10308;42.688;23.256;2023-07-08T00:20:10;12.20;;;11.10;;
20298;SDS011;10308;42.688;23.256;2023-07-08T00:22:39;12.40;;;11.35;;
20298;SDS011;10308;42.688;23.256;2023-07-08T00:25:13;12.50;;;11.30;;
20298;SDS011;10308;42.688;23.256;2023-07-08T00:27:40;12.82;;;11.55;;
20298;SDS011;10308;42.688;23.256;2023-07-08T00:30:15;12.35;;;11.25;;
20298;SDS011;10308;42.688;23.256;2023-07-08T00:32:45;11.82;;;10.73;;
20298;SDS011;10308;42.688;23.256;2023-07-08T00:35:21;11.90;;;10.85;;
20298;SDS011;10308;42.688;23.256;2023-07-08T00:38:01;12.73;;;11.63;;
20298;SDS011;10308;42.688;23.256;2023-07-08T00:40:46;11.13;;;10.23;;
20298;SDS011;10308;42.688;23.256;2023-07-08T00:43:16;11.85;;;10.95;;
20298;SDS011;10308;42.688;23.256;2023-07-08T00:45:47;12.10;;;11.00;;
20298;SDS011;10308;42.688;23.256;2023-07-08T00:48:18;12.52;;;10.98;;
20298;SDS011;10308;42.688;23.256;2023-07-08T00:50:46;11.75;;;10.77;;
20298;SDS011;10308;42.688;23.256;2023-07-08T00:53:23;11.85;;;10.75;;
20298;SDS011;10308;42.688;23.256;2023-07-08T00:55:52;11.73;;;10.73;;
20298;SDS011;10308;42.688;23.256;2023-07-08T00:58:21;11.05;;;10.07;;
20298;SDS011;10308;42.688;23.256;2023-07-08T01:00:51;12.27;;;11.13;;
20298;SDS011;10308;42.688;23.256;2023-07-08T01:03:22;11.65;;;10.73;;
20298;SDS011;10308;42.688;23.256;2023-07-08T01:05:50;11.13;;;10.20;;
20298;SDS011;10308;42.688;23.256;2023-07-08T01:08:22;10.73;;;9.82;;
20298;SDS011;10308;42.688;23.256;2023-07-08T01:10:54;11.20;;;10.20;;
20298;SDS011;10308;42.688;23.256;2023-07-08T01:13:24;10.93;;;9.90;;
20298;SDS011;10308;42.688;23.256;2023-07-08T01:15:55;10.93;;;10.00;;
20298;SDS011;10308;42.688;23.256;2023-07-08T01:18:21;11.05;;;10.15;;
20298;SDS011;10308;42.688;23.256;2023-07-08T01:20:50;11.50;;;10.50;;
20298;SDS011;10308;42.688;23.256;2023-07-08T01:23:22;10.75;;;9.85;;
20298;SDS011;10308;42.688;23.256;2023-07-08T01:25:49;10.38;;;9.48;;
20298;SDS011;10308;42.688;23.256;2023-07-08T01:28:16;11.93;;;10.23;;
20298;SDS011;10308;42.688;23.256;2023-07-08T01:30:44;11.05;;;10.05;;
20298;SDS011;10308;42.688;23.256;2023-07-08T01:33:15;10.88;;;9.98;;
20298;SDS011;10308;42.688;23.256;2023-07-08T01:35:45;11.02;;;10.02;;
20298;SDS011;10308;42.688;23.256;2023-07-08T01:38:14;11.32;;;10.15;;
20298;SDS011;10308;42.688;23.256;2023-07-08T01:40:53;10.32;;;9.35;;
20298;SDS011;10308;42.688;23.256;2023-07-08T01:43:20;10.30;;;9.40;;
20298;SDS011;10308;42.688;23.256;2023-07-08T01:45:49;10.25;;;9.35;;
20298;SDS011;10308;42.688;23.256;2023-07-08T01:48:21;10.15;;;9.25;;
20298;SDS011;10308;42.688;23.256;2023-07-08T01:50:50;9.68;;;8.88;;
20298;SDS011;10308;42.688;23.256;2023-07-08T01:53:22;10.77;;;9.70;;
20298;SDS011;10308;42.688;23.256;2023-07-08T01:55:56;10.32;;;9.43;;
20298;SDS011;10308;42.688;23.256;2023-07-08T01:58:23;9.98;;;9.05;;
20298;SDS011;10308;42.688;23.256;2023-07-08T02:00:50;9.70;;;8.90;;
20298;SDS011;10308;42.688;23.256;2023-07-08T02:03:17;9.63;;;8.82;;
20298;SDS011;10308;42.688;23.256;2023-07-08T02:05:45;9.23;;;8.43;;
20298;SDS011;10308;42.688;23.256;2023-07-08T02:08:11;9.70;;;8.90;;
20298;SDS011;10308;42.688;23.256;2023-07-08T02:10:42;9.40;;;8.57;;
20298;SDS011;10308;42.688;23.256;2023-07-08T02:13:11;9.52;;;8.65;;
20298;SDS011;10308;42.688;23.256;2023-07-08T02:15:39;9.75;;;8.82;;
20298;SDS011;10308;42.688;23.256;2023-07-08T02:18:06;10.43;;;9.43;;
20298;SDS011;10308;42.688;23.256;2023-07-08T02:20:32;9.30;;;8.52;;
20298;SDS011;10308;42.688;23.256;2023-07-08T02:22:59;9.63;;;8.80;;
20298;SDS011;10308;42.688;23.256;2023-07-08T02:25:27;9.15;;;8.35;;
20298;SDS011;10308;42.688;23.256;2023-07-08T02:27:58;9.75;;;8.95;;
20298;SDS011;10308;42.688;23.256;2023-07-08T02:30:28;9.70;;;8.90;;
20298;SDS011;10308;42.688;23.256;2023-07-08T02:32:54;9.60;;;8.70;;
20298;SDS011;10308;42.688;23.256;2023-07-08T02:35:27;9.73;;;8.85;;
20298;SDS011;10308;42.688;23.256;2023-07-08T02:38:00;9.85;;;9.05;;
20298;SDS011;10308;42.688;23.256;2023-07-08T02:40:31;10.30;;;9.32;;
20298;SDS011;10308;42.688;23.256;2023-07-08T02:42:57;9.43;;;8.52;;
20298;SDS011;10308;42.688;23.256;2023-07-08T02:45:25;10.02;;;9.13;;
20298;SDS011;10308;42.688;23.256;2023-07-08T02:47:58;10.30;;;9.40;;
20298;SDS011;10308;42.688;23.256;2023-07-08T02:50:27;10.00;;;9.02;;
20298;SDS011;10308;42.688;23.256;2023-07-08T02:52:56;9.98;;;9.07;;
20298;SDS011;10308;42.688;23.256;2023-07-08T02:55:24;10.15;;;9.13;;
20298;SDS011;10308;42.688;23.256;2023-07-08T02:57:51;10.00;;;9.20;;
20298;SDS011;10308;42.688;23.256;2023-07-08T03:00:18;10.45;;;9.55;;
20298;SDS011;10308;42.688;23.256;2023-07-08T03:02:46;9.93;;;9.20;;
20298;SDS011;10308;42.688;23.256;2023-07-08T03:05:14;10.05;;;9.00;;
20298;SDS011;10308;42.688;23.256;2023-07-08T03:07:41;9.90;;;9.02;;
20298;SDS011;10308;42.688;23.256;2023-07-08T03:10:09;10.15;;;9.20;;
20298;SDS011;10308;42.688;23.256;2023-07-08T03:12:36;9.93;;;9.13;;
20298;SDS011;10308;42.688;23.256;2023-07-08T03:15:04;9.90;;;9.00;;
20298;SDS011;10308;42.688;23.256;2023-07-08T03:17:31;9.90;;;8.90;;
20298;SDS011;10308;42.688;23.256;2023-07-08T03:20:01;9.38;;;8.57;;
20298;SDS011;10308;42.688;23.256;2023-07-08T03:22:30;8.90;;;8.18;;
20298;SDS011;10308;42.688;23.256;2023-07-08T03:24:57;8.73;;;7.97;;
20298;SDS011;10308;42.688;23.256;2023-07-08T03:27:27;8.77;;;8.07;;
20298;SDS011;10308;42.688;23.256;2023-07-08T03:29:54;8.95;;;8.05;;
20298;SDS011;10308;42.688;23.256;2023-07-08T03:32:24;8.43;;;7.82;;
20298;SDS011;10308;42.688;23.256;2023-07-08T03:34:51;9.07;;;8.27;;
20298;SDS011;10308;42.688;23.256;2023-07-08T03:37:24;9.18;;;8.38;;
20298;SDS011;10308;42.688;23.256;2023-07-08T03:39:51;8.80;;;8.10;;
20298;SDS011;10308;42.688;23.256;2023-07-08T03:42:21;8.65;;;7.85;;
20298;SDS011;10308;42.688;23.256;2023-07-08T03:44:47;8.40;;;7.70;;
20298;SDS011;10308;42.688;23.256;2023-07-08T03:47:14;7.70;;;7.00;;
20298;SDS011;10308;42.688;23.256;2023-07-08T03:49:41;8.15;;;7.45;;
20298;SDS011;10308;42.688;23.256;2023-07-08T03:52:12;8.30;;;7.63;;
20298;SDS011;10308;42.688;23.256;2023-07-08T03:54:43;9.88;;;8.02;;
20298;SDS011;10308;42.688;23.256;2023-07-08T03:57:10;8.80;;;8.00;;
20298;SDS011;10308;42.688;23.256;2023-07-08T03:59:37;8.10;;;7.50;;
20298;SDS011;10308;42.688;23.256;2023-07-08T04:02:04;8.35;;;7.55;;
20298;SDS011;10308;42.688;23.256;2023-07-08T04:04:32;8.52;;;7.82;;
20298;SDS011;10308;42.688;23.256;2023-07-08T04:07:02;7.88;;;7.18;;
20298;SDS011;10308;42.688;23.256;2023-07-08T05:11:56;7.90;;;7.20;;
20298;SDS011;10308;42.688;23.256;2023-07-08T05:14:24;7.68;;;7.00;;
20298;SDS011;10308;42.688;23.256;2023-07-08T05:16:51;8.07;;;7.28;;
20298;SDS011;10308;42.688;23.256;2023-07-08T05:19:18;7.88;;;7.18;;
20298;SDS011;10308;42.688;23.256;2023-07-08T05:21:47;8.35;;;7.65;;
20298;SDS011;10308;42.688;23.256;2023-07-08T05:24:14;7.97;;;7.28;;
20298;SDS011;10308;42.688;23.256;2023-07-08T05:26:41;7.47;;;6.78;;
20298;SDS011;10308;42.688;23.256;2023-07-08T05:29:11;7.97;;;7.38;;
20298;SDS011;10308;42.688;23.256;2023-07-08T05:31:38;7.00;;;6.40;;
20298;SDS011;10308;42.688;23.256;2023-07-08T05:34:05;7.38;;;6.78;;
20298;SDS011;10308;42.688;23.256;2023-07-08T05:36:32;7.43;;;6.70;;
20298;SDS011;10308;42.688;23.256;2023-07-08T05:39:00;8.13;;;7.43;;
20298;SDS011;10308;42.688;23.256;2023-07-08T05:41:27;7.63;;;6.97;;
20298;SDS011;10308;42.688;23.256;2023-07-08T05:43:55;7.45;;;6.72;;
20298;SDS011;10308;42.688;23.256;2023-07-08T05:46:25;7.18;;;6.57;;
20298;SDS011;10308;42.688;23.256;2023-07-08T05:48:52;7.13;;;6.53;;
20298;SDS011;10308;42.688;23.256;2023-07-08T05:51:20;7.65;;;7.05;;
20298;SDS011;10308;42.688;23.256;2023-07-08T05:53:47;7.60;;;6.90;;
20298;SDS011;10308;42.688;23.256;2023-07-08T05:56:16;7.25;;;6.68;;
20298;SDS011;10308;42.688;23.256;2023-07-08T05:58:42;7.50;;;6.88;;
20298;SDS011;10308;42.688;23.256;2023-07-08T06:01:09;7.38;;;6.68;;
20298;SDS011;10308;42.688;23.256;2023-07-08T06:03:38;7.45;;;6.85;;
20298;SDS011;10308;42.688;23.256;2023-07-08T06:06:08;7.60;;;6.53;;
20298;SDS011;10308;42.688;23.256;2023-07-08T06:08:35;8.20;;;7.40;;
20298;SDS011;10308;42.688;23.256;2023-07-08T06:11:03;7.15;;;6.55;;
20298;SDS011;10308;42.688;23.256;2023-07-08T06:13:31;7.72;;;7.00;;
20298;SDS011;10308;42.688;23.256;2023-07-08T06:15:59;7.88;;;7.18;;
20298;SDS011;10308;42.688;23.256;2023-07-08T06:18:25;8.05;;;7.32;;
20298;SDS011;10308;42.688;23.256;2023-07-08T06:20:59;7.68;;;6.90;;
20298;SDS011;10308;42.688;23.256;2023-07-08T06:23:28;7.18;;;6.57;;
20298;SDS011;10308;42.688;23.256;2023-07-08T06:25:56;7.13;;;6.43;;
20298;SDS011;10308;42.688;23.256;2023-07-08T06:28:24;7.45;;;6.60;;
20298;SDS011;10308;42.688;23.256;2023-07-08T06:30:52;7.32;;;6.63;;
20298;SDS011;10308;42.688;23.256;2023-07-08T06:33:19;6.88;;;6.38;;
20298;SDS011;10308;42.688;23.256;2023-07-08T06:35:46;7.13;;;6.53;;
20298;SDS011;10308;42.688;23.256;2023-07-08T06:38:16;7.40;;;6.60;;
20298;SDS011;10308;42.688;23.256;2023-07-08T06:40:42;6.90;;;6.30;;
20298;SDS011;10308;42.688;23.256;2023-07-08T06:43:09;7.00;;;6.40;;
20298;SDS011;10308;42.688;23.256;2023-07-08T06:45:36;6.93;;;6.22;;
20298;SDS011;10308;42.688;23.256;2023-07-08T06:48:03;7.75;;;6.57;;
20298;SDS011;10308;42.688;23.256;2023-07-08T06:50:32;7.38;;;6.68;;
20298;SDS011;10308;42.688;23.256;2023-07-08T06:53:00;8.98;;;6.55;;
20298;SDS011;10308;42.688;23.256;2023-07-08T06:55:28;6.60;;;6.05;;
20298;SDS011;10308;42.688;23.256;2023-07-08T06:57:56;6.72;;;5.97;;
20298;SDS011;10308;42.688;23.256;2023-07-08T07:00:24;7.05;;;6.35;;
20298;SDS011;10308;42.688;23.256;2023-07-08T07:02:51;6.45;;;5.90;;
20298;SDS011;10308;42.688;23.256;2023-07-08T07:05:18;8.13;;;7.00;;
20298;SDS011;10308;42.688;23.256;2023-07-08T07:07:45;6.60;;;6.00;;
20298;SDS011;10308;42.688;23.256;2023-07-08T07:10:12;7.35;;;6.65;;
20298;SDS011;10308;42.688;23.256;2023-07-08T07:12:42;7.22;;;6.63;;
20298;SDS011;10308;42.688;23.256;2023-07-08T07:15:10;6.53;;;5.88;;
20298;SDS011;10308;42.688;23.256;2023-07-08T07:17:37;7.22;;;6.63;;
20298;SDS011;10308;42.688;23.256;2023-07-08T07:20:08;7.30;;;6.65;;
20298;SDS011;10308;42.688;23.256;2023-07-08T07:22:35;7.65;;;6.75;;
20298;SDS011;10308;42.688;23.256;2023-07-08T07:25:02;7.43;;;6.75;;
20298;SDS011;10308;42.688;23.256;2023-07-08T07:27:29;7.72;;;7.00;;
20298;SDS011;10308;42.688;23.256;2023-07-08T07:30:00;7.93;;;7.10;;
20298;SDS011;10308;42.688;23.256;2023-07-08T07:32:28;7.70;;;6.75;;
20298;SDS011;10308;42.688;23.256;2023-07-08T07:34:57;8.15;;;7.35;;
20298;SDS011;10308;42.688;23.256;2023-07-08T07:37:25;7.60;;;6.80;;
20298;SDS011;10308;42.688;23.256;2023-07-08T07:39:52;7.72;;;7.03;;
20298;SDS011;10308;42.688;23.256;2023-07-08T07:42:22;7.85;;;7.15;;
20298;SDS011;10308;42.688;23.256;2023-07-08T07:44:50;7.85;;;7.15;;
20298;SDS011;10308;42.688;23.256;2023-07-08T07:47:20;7.90;;;7.13;;
20298;SDS011;10308;42.688;23.256;2023-07-08T07:49:46;7.43;;;6.80;;
20298;SDS011;10308;42.688;23.256;2023-07-08T07:52:13;7.15;;;6.55;;
20298;SDS011;10308;42.688;23.256;2023-07-08T07:54:44;9.00;;;6.50;;
20298;SDS011;10308;42.688;23.256;2023-07-08T07:57:10;6.55;;;6.05;;
20298;SDS011;10308;42.688;23.256;2023-07-08T07:59:37;8.25;;;7.25;;
20298;SDS011;10308;42.688;23.256;2023-07-08T08:02:07;6.80;;;6.30;;
20298;SDS011;10308;42.688;23.256;2023-07-08T08:04:39;7.57;;;6.88;;
20298;SDS011;10308;42.688;23.256;2023-07-08T08:07:07;7.78;;;6.78;;
20298;SDS011;10308;42.688;23.256;2023-07-08T08:09:36;7.80;;;7.07;;
20298;SDS011;10308;42.688;23.256;2023-07-08T08:12:07;7.85;;;7.15;;
20298;SDS011;10308;42.688;23.256;2023-07-08T08:14:34;7.07;;;6.47;;
20298;SDS011;10308;42.688;23.256;2023-07-08T09:15:59;7.43;;;6.75;;
20298;SDS011;10308;42.688;23.256;2023-07-08T09:18:30;7.35;;;6.65;;
20298;SDS011;10308;42.688;23.256;2023-07-08T09:21:02;7.65;;;7.00;;
20298;SDS011;10308;42.688;23.256;2023-07-08T09:23:32;7.22;;;6.55;;
20298;SDS011;10308;42.688;23.256;2023-07-08T09:26:02;7.35;;;6.75;;
20298;SDS011;10308;42.688;23.256;2023-07-08T09:28:36;7.50;;;6.90;;
20298;SDS011;10308;42.688;23.256;2023-07-08T09:31:09;7.35;;;6.47;;
20298;SDS011;10308;42.688;23.256;2023-07-08T09:33:40;7.25;;;6.55;;
20298;SDS011;10308;42.688;23.256;2023-07-08T09:36:15;7.53;;;6.75;;
20298;SDS011;10308;42.688;23.256;2023-07-08T09:38:46;7.25;;;6.65;;
20298;SDS011;10308;42.688;23.256;2023-07-08T09:41:14;6.82;;;6.22;;
20298;SDS011;10308;42.688;23.256;2023-07-08T09:44:02;7.18;;;6.57;;
20298;SDS011;10308;42.688;23.256;2023-07-08T09:46:36;7.15;;;6.35;;
20298;SDS011;10308;42.688;23.256;2023-07-08T09:49:19;6.10;;;5.70;;
20298;SDS011;10308;42.688;23.256;2023-07-08T09:51:51;7.03;;;6.28;;
20298;SDS011;10308;42.688;23.256;2023-07-08T09:54:24;7.13;;;6.53;;
20298;SDS011;10308;42.688;23.256;2023-07-08T09:56:55;6.25;;;5.68;;
20298;SDS011;10308;42.688;23.256;2023-07-08T09:59:28;6.15;;;5.65;;
20298;SDS011;10308;42.688;23.256;2023-07-08T10:02:03;6.32;;;5.82;;
20298;SDS011;10308;42.688;23.256;2023-07-08T10:04:52;6.40;;;5.90;;
20298;SDS011;10308;42.688;23.256;2023-07-08T10:07:19;6.43;;;5.88;;
20298;SDS011;10308;42.688;23.256;2023-07-08T10:09:46;5.85;;;5.35;;
20298;SDS011;10308;42.688;23.256;2023-07-08T10:12:15;5.95;;;5.55;;
20298;SDS011;10308;42.688;23.256;2023-07-08T10:14:43;5.78;;;5.28;;
20298;SDS011;10308;42.688;23.256;2023-07-08T10:17:15;6.00;;;5.50;;
20298;SDS011;10308;42.688;23.256;2023-07-08T10:19:43;6.05;;;5.63;;
20298;SDS011;10308;42.688;23.256;2023-07-08T10:22:15;6.40;;;5.80;;
20298;SDS011;10308;42.688;23.256;2023-07-08T10:24:56;6.00;;;5.50;;
20298;SDS011;10308;42.688;23.256;2023-07-08T10:27:31;5.82;;;5.32;;
20298;SDS011;10308;42.688;23.256;2023-07-08T10:30:10;6.55;;;5.38;;
20298;SDS011;10308;42.688;23.256;2023-07-08T10:32:48;5.95;;;5.45;;
20298;SDS011;10308;42.688;23.256;2023-07-08T10:35:22;5.45;;;5.05;;
20298;SDS011;10308;42.688;23.256;2023-07-08T10:37:59;6.20;;;5.60;;
20298;SDS011;10308;42.688;23.256;2023-07-08T10:40:39;5.88;;;5.38;;
20298;SDS011;10308;42.688;23.256;2023-07-08T10:43:16;5.35;;;4.93;;
20298;SDS011;10308;42.688;23.256;2023-07-08T10:46:03;6.32;;;5.78;;
20298;SDS011;10308;42.688;23.256;2023-07-08T10:48:46;5.18;;;4.72;;
20298;SDS011;10308;42.688;23.256;2023-07-08T10:51:43;5.63;;;4.97;;
20298;SDS011;10308;42.688;23.256;2023-07-08T10:54:20;5.68;;;5.20;;
20298;SDS011;10308;42.688;23.256;2023-07-08T10:56:58;8.82;;;5.55;;
20298;SDS011;10308;42.688;23.256;2023-07-08T10:59:44;6.60;;;5.30;;
20298;SDS011;10308;42.688;23.256;2023-07-08T11:02:29;6.97;;;5.35;;
20298;SDS011;10308;42.688;23.256;2023-07-08T11:05:25;5.78;;;5.20;;
20298;SDS011;10308;42.688;23.256;2023-07-08T11:07:57;5.55;;;5.07;;
20298;SDS011;10308;42.688;23.256;2023-07-08T11:10:28;5.68;;;5.25;;
20298;SDS011;10308;42.688;23.256;2023-07-08T11:13:02;5.90;;;5.40;;
20298;SDS011;10308;42.688;23.256;2023-07-08T11:15:33;5.78;;;5.28;;
20298;SDS011;10308;42.688;23.256;2023-07-08T11:18:04;6.13;;;5.55;;
20298;SDS011;10308;42.688;23.256;2023-07-08T11:20:37;5.95;;;5.47;;
20298;SDS011;10308;42.688;23.256;2023-07-08T11:23:12;5.60;;;5.10;;
20298;SDS011;10308;42.688;23.256;2023-07-08T11:25:50;5.28;;;4.78;;
20298;SDS011;10308;42.688;23.256;2023-07-08T11:28:21;5.82;;;5.38;;
20298;SDS011;10308;42.688;23.256;2023-07-08T11:30:50;6.07;;;5.22;;
20298;SDS011;10308;42.688;23.256;2023-07-08T11:33:19;5.38;;;4.93;;
20298;SDS011;10308;42.688;23.256;2023-07-08T11:35:52;6.00;;;5.50;;
20298;SDS011;10308;42.688;23.256;2023-07-08T11:38:21;5.57;;;5.07;;
20298;SDS011;10308;42.688;23.256;2023-07-08T11:40:51;5.57;;;5.07;;
20298;SDS011;10308;42.688;23.256;2023-07-08T11:43:20;6.22;;;5.32;;
20298;SDS011;10308;42.688;23.256;2023-07-08T11:45:50;6.00;;;5.45;;
20298;SDS011;10308;42.688;23.256;2023-07-08T11:48:22;5.90;;;4.97;;
20298;SDS011;10308;42.688;23.256;2023-07-08T11:50:54;5.25;;;4.85;;
20298;SDS011;10308;42.688;23.256;2023-07-08T11:53:34;5.70;;;4.70;;
20298;SDS011;10308;42.688;23.256;2023-07-08T11:56:03;5.43;;;4.93;;
20298;SDS011;10308;42.688;23.256;2023-07-08T12:01:22;5.05;;;4.65;;
20298;SDS011;10308;42.688;23.256;2023-07-08T12:03:55;4.60;;;4.30;;
20298;SDS011;10308;42.688;23.256;2023-07-08T12:06:46;5.03;;;4.57;;
20298;SDS011;10308;42.688;23.256;2023-07-08T12:09:15;4.60;;;4.30;;
20298;SDS011;10308;42.688;23.256;2023-07-08T12:11:51;4.43;;;4.13;;
20298;SDS011;10308;42.688;23.256;2023-07-08T12:14:21;5.22;;;4.72;;
20298;SDS011;10308;42.688;23.256;2023-07-08T12:16:51;4.93;;;4.43;;
20298;SDS011;10308;42.688;23.256;2023-07-08T12:19:20;5.25;;;4.85;;
20298;SDS011;10308;42.688;23.256;2023-07-08T12:21:52;4.90;;;4.50;;
20298;SDS011;10308;42.688;23.256;2023-07-08T12:24:19;4.88;;;4.45;;
20298;SDS011;10308;42.688;23.256;2023-07-08T12:26:51;5.95;;;4.13;;
20298;SDS011;10308;42.688;23.256;2023-07-08T12:29:18;5.30;;;4.80;;
20298;SDS011;10308;42.688;23.256;2023-07-08T12:31:45;4.25;;;3.78;;
20298;SDS011;10308;42.688;23.256;2023-07-08T12:34:12;5.00;;;4.50;;
20298;SDS011;10308;42.688;23.256;2023-07-08T12:36:43;4.60;;;4.20;;
20298;SDS011;10308;42.688;23.256;2023-07-08T12:39:14;7.25;;;4.35;;
20298;SDS011;10308;42.688;23.256;2023-07-08T12:41:43;4.55;;;4.13;;
20298;SDS011;10308;42.688;23.256;2023-07-08T12:44:15;5.07;;;4.68;;
20298;SDS011;10308;42.688;23.256;2023-07-08T12:46:45;4.63;;;4.25;;
20298;SDS011;10308;42.688;23.256;2023-07-08T12:49:13;4.32;;;4.03;;
20298;SDS011;10308;42.688;23.256;2023-07-08T12:51:42;4.85;;;4.50;;
20298;SDS011;10308;42.688;23.256;2023-07-08T12:54:10;4.25;;;3.85;;
20298;SDS011;10308;42.688;23.256;2023-07-08T12:56:42;4.10;;;3.80;;
20298;SDS011;10308;42.688;23.256;2023-07-08T12:59:11;3.95;;;3.65;;
20298;SDS011;10308;42.688;23.256;2023-07-08T13:01:39;4.10;;;3.80;;
20298;SDS011;10308;42.688;23.256;2023-07-08T13:04:09;5.15;;;3.90;;
20298;SDS011;10308;42.688;23.256;2023-07-08T13:06:36;4.20;;;3.90;;
20298;SDS011;10308;42.688;23.256;2023-07-08T13:09:07;4.35;;;3.95;;
20298;SDS011;10308;42.688;23.256;2023-07-08T13:11:42;5.72;;;4.00;;
20298;SDS011;10308;42.688;23.256;2023-07-08T13:14:11;4.57;;;4.00;;
20298;SDS011;10308;42.688;23.256;2023-07-08T13:16:40;4.50;;;3.80;;
20298;SDS011;10308;42.688;23.256;2023-07-08T13:19:11;4.13;;;3.72;;
20298;SDS011;10308;42.688;23.256;2023-07-08T13:21:39;3.88;;;3.55;;
20298;SDS011;10308;42.688;23.256;2023-07-08T13:24:09;4.85;;;3.95;;
20298;SDS011;10308;42.688;23.256;2023-07-08T13:26:36;4.00;;;3.70;;
20298;SDS011;10308;42.688;23.256;2023-07-08T13:29:11;4.38;;;3.65;;
20298;SDS011;10308;42.688;23.256;2023-07-08T13:31:43;3.88;;;3.58;;
20298;SDS011;10308;42.688;23.256;2023-07-08T13:34:16;5.72;;;4.40;;
20298;SDS011;10308;42.688;23.256;2023-07-08T13:36:48;4.28;;;3.90;;
20298;SDS011;10308;42.688;23.256;2023-07-08T13:39:19;3.83;;;3.53;;
20298;SDS011;10308;42.688;23.256;2023-07-08T13:41:52;4.45;;;4.05;;
20298;SDS011;10308;42.688;23.256;2023-07-08T13:44:23;5.10;;;4.05;;
20298;SDS011;10308;42.688;23.256;2023-07-08T13:46:51;4.90;;;3.65;;
20298;SDS011;10308;42.688;23.256;2023-07-08T13:49:23;4.07;;;3.70;;
20298;SDS011;10308;42.688;23.256;2023-07-08T13:52:04;4.70;;;4.30;;
20298;SDS011;10308;42.688;23.256;2023-07-08T13:54:33;4.25;;;3.88;;
20298;SDS011;10308;42.688;23.256;2023-07-08T13:57:08;4.35;;;3.95;;
20298;SDS011;10308;42.688;23.256;2023-07-08T13:59:38;4.30;;;3.88;;
20298;SDS011;10308;42.688;23.256;2023-07-08T14:02:14;4.32;;;3.92;;
20298;SDS011;10308;42.688;23.256;2023-07-08T14:04:42;4.47;;;3.83;;
20298;SDS011;10308;42.688;23.256;2023-07-08T14:07:11;4.40;;;3.90;;
20298;SDS011;10308;42.688;23.256;2023-07-08T14:09:40;3.65;;;3.33;;
20298;SDS011;10308;42.688;23.256;2023-07-08T14:12:10;4.25;;;3.88;;
20298;SDS011;10308;42.688;23.256;2023-07-08T14:14:40;3.75;;;3.45;;
20298;SDS011;10308;42.688;23.256;2023-07-08T14:17:08;3.60;;;3.30;;
20298;SDS011;10308;42.688;23.256;2023-07-08T14:19:37;4.38;;;3.72;;
20298;SDS011;10308;42.688;23.256;2023-07-08T14:22:21;4.30;;;3.70;;
20298;SDS011;10308;42.688;23.256;2023-07-08T14:24:49;4.03;;;3.67;;
20298;SDS011;10308;42.688;23.256;2023-07-08T14:27:16;4.13;;;3.83;;
20298;SDS011;10308;42.688;23.256;2023-07-08T14:29:47;6.45;;;3.78;;
20298;SDS011;10308;42.688;23.256;2023-07-08T14:32:16;3.95;;;3.65;;
20298;SDS011;10308;42.688;23.256;2023-07-08T14:34:48;4.57;;;4.18;;
20298;SDS011;10308;42.688;23.256;2023-07-08T14:37:16;4.65;;;4.25;;
20298;SDS011;10308;42.688;23.256;2023-07-08T14:39:44;4.78;;;4.00;;
20298;SDS011;10308;42.688;23.256;2023-07-08T14:42:11;4.50;;;3.72;;
20298;SDS011;10308;42.688;23.256;2023-07-08T14:44:40;6.85;;;3.70;;
20298;SDS011;10308;42.688;23.256;2023-07-08T14:47:10;4.72;;;3.80;;
20298;SDS011;10308;42.688;23.256;2023-07-08T14:49:40;4.30;;;3.90;;
20298;SDS011;10308;42.688;23.256;2023-07-08T14:52:08;4.25;;;3.85;;
20298;SDS011;10308;42.688;23.256;2023-07-08T14:54:35;4.60;;;4.03;;
20298;SDS011;10308;42.688;23.256;2023-07-08T14:57:02;4.68;;;4.28;;
20298;SDS011;10308;42.688;23.256;2023-07-08T14:59:31;3.95;;;3.55;;
20298;SDS011;10308;42.688;23.256;2023-07-08T15:01:59;6.43;;;4.10;;
20298;SDS011;10308;42.688;23.256;2023-07-08T15:04:29;4.93;;;3.75;;
20298;SDS011;10308;42.688;23.256;2023-07-08T15:06:58;4.13;;;3.72;;
20298;SDS011;10308;42.688;23.256;2023-07-08T15:09:28;4.93;;;3.90;;
20298;SDS011;10308;42.688;23.256;2023-07-08T15:11:55;4.35;;;3.78;;
20298;SDS011;10308;42.688;23.256;2023-07-08T15:14:24;3.85;;;3.55;;
20298;SDS011;10308;42.688;23.256;2023-07-08T15:16:51;4.32;;;3.95;;
20298;SDS011;10308;42.688;23.256;2023-07-08T15:19:18;4.68;;;3.80;;
20298;SDS011;10308;42.688;23.256;2023-07-08T15:21:49;4.13;;;3.72;;
20298;SDS011;10308;42.688;23.256;2023-07-08T15:24:16;3.88;;;3.58;;
20298;SDS011;10308;42.688;23.256;2023-07-08T15:26:45;4.50;;;4.10;;
20298;SDS011;10308;42.688;23.256;2023-07-08T15:29:16;5.80;;;4.32;;
20298;SDS011;10308;42.688;23.256;2023-07-08T15:31:44;4.55;;;4.15;;
20298;SDS011;10308;42.688;23.256;2023-07-08T15:34:11;4.53;;;4.13;;
20298;SDS011;10308;42.688;23.256;2023-07-08T15:36:41;4.45;;;3.83;;
20298;SDS011;10308;42.688;23.256;2023-07-08T16:41:15;4.10;;;3.70;;
20298;SDS011;10308;42.688;23.256;2023-07-08T16:43:43;5.25;;;4.75;;
20298;SDS011;10308;42.688;23.256;2023-07-08T16:46:13;6.05;;;4.72;;
20298;SDS011;10308;42.688;23.256;2023-07-08T16:48:42;6.40;;;4.85;;
20298;SDS011;10308;42.688;23.256;2023-07-08T16:51:10;5.10;;;4.50;;
20298;SDS011;10308;42.688;23.256;2023-07-08T16:53:41;5.47;;;4.38;;
20298;SDS011;10308;42.688;23.256;2023-07-08T16:56:10;5.07;;;4.00;;
20298;SDS011;10308;42.688;23.256;2023-07-08T16:58:41;4.68;;;4.18;;
20298;SDS011;10308;42.688;23.256;2023-07-08T17:01:11;4.90;;;4.20;;
20298;SDS011;10308;42.688;23.256;2023-07-08T17:03:40;4.95;;;4.15;;
20298;SDS011;10308;42.688;23.256;2023-07-08T17:06:09;6.05;;;4.72;;
20298;SDS011;10308;42.688;23.256;2023-07-08T17:08:35;4.93;;;4.38;;
20298;SDS011;10308;42.688;23.256;2023-07-08T17:11:03;5.45;;;4.13;;
20298;SDS011;10308;42.688;23.256;2023-07-08T17:13:30;6.03;;;4.43;;
20298;SDS011;10308;42.688;23.256;2023-07-08T17:16:01;5.05;;;4.65;;
20298;SDS011;10308;42.688;23.256;2023-07-08T17:18:28;4.90;;;4.28;;
20298;SDS011;10308;42.688;23.256;2023-07-08T17:20:58;6.05;;;4.18;;
20298;SDS011;10308;42.688;23.256;2023-07-08T17:23:27;5.53;;;4.50;;
20298;SDS011;10308;42.688;23.256;2023-07-08T17:25:53;4.47;;;4.07;;
20298;SDS011;10308;42.688;23.256;2023-07-08T17:28:20;4.50;;;4.00;;
20298;SDS011;10308;42.688;23.256;2023-07-08T17:30:51;4.78;;;4.32;;
20298;SDS011;10308;42.688;23.256;2023-07-08T17:33:20;5.03;;;4.60;;
20298;SDS011;10308;42.688;23.256;2023-07-08T17:35:50;3.97;;;3.58;;
20298;SDS011;10308;42.688;23.256;2023-07-08T17:38:20;4.97;;;4.03;;
20298;SDS011;10308;42.688;23.256;2023-07-08T17:40:47;5.15;;;4.47;;
20298;SDS011;10308;42.688;23.256;2023-07-08T17:43:14;4.63;;;3.97;;
20298;SDS011;10308;42.688;23.256;2023-07-08T17:45:43;4.47;;;4.07;;
20298;SDS011;10308;42.688;23.256;2023-07-08T17:48:11;4.75;;;4.25;;
20298;SDS011;10308;42.688;23.256;2023-07-08T17:50:43;4.38;;;4.00;;
20298;SDS011;10308;42.688;23.256;2023-07-08T17:53:11;4.60;;;4.20;;
20298;SDS011;10308;42.688;23.256;2023-07-08T17:55:37;6.05;;;4.88;;
20298;SDS011;10308;42.688;23.256;2023-07-08T17:58:07;4.78;;;4.38;;
20298;SDS011;10308;42.688;23.256;2023-07-08T18:00:37;5.10;;;4.60;;
20298;SDS011;10308;42.688;23.256;2023-07-08T18:03:08;5.53;;;4.70;;
20298;SDS011;10308;42.688;23.256;2023-07-08T18:05:35;5.32;;;4.55;;
20298;SDS011;10308;42.688;23.256;2023-07-08T18:08:08;5.28;;;4.78;;
20298;SDS011;10308;42.688;23.256;2023-07-08T18:10:35;5.20;;;4.70;;